Pagina principală
METAR-TAF:

METAR-TAF

Aeroporturi :

Buffalo Narrows, Manitoba, Canada

Latitudine: 55-50N, longitudine: 108-27W, elevație: 434 m

Observații meteo curente

Raportul a fost făcut în urmă cu 55 de minute, la 21:00 UTC
Vânt 4 kt din direcții variabile
Temperatură 25°C
Umiditate 34%
Presiune 1011 hPa
Vizibilitate: 14.5 km
Cer senin

METAR: CYVT 222100Z AUTO VRB04KT 9SM CLR 25/08 A2984 RMK SLP112 DENSITY ALT 3000FT

Ora: 16:55 (21:55 UTC)

Prognoză

Raportul a fost făcut în urmă cu 1 oră și 13 de minute, la 20:42 UTC
Prognoză valabilă de la 22 ora 21 UTC la 23 ora 04 UTC
Vânt 6 kt de la Vest/Sud-vest
Vizibilitate: 10 km
Nori puțini la o înălțime de 7000 picior
De la 23 ora 0200 UTC
Vânt 3 kt din direcții variabile
Vizibilitate: 10 km
Cer senin

TAF: CYVT 222042Z 2221/2304 24006KT P6SM FEW070 FM230200 VRB03KT P6SM SKC RMK FCST BASED ON AUTO OBS. NXT FCST BY 231400Z

Observații și prognoze meteo pentru peste 4.000 de aeroporturi (rapoarte METAR și TAF).

Stațiile disponibile sunt reprezentate pe hartă prin puncte galbene și roșii.

Țineți indicatorul mouse-ului pe punctul dorit pentru a vedea denumirea stației.

Apoi, faceți clic pentru a vedea observațiile și prognozele meteorologice.

Pentru a schimba harta: Pentru mărire, faceți clic pe butoanele verzi cu cruce neagră; pentru micșorare, pe butonul verde cu o liniuță; pentru hărți învecinate, pe săgețile verzi.


METAR-TAF: